createdAt,value
2022-12-03T00:00:57.362Z,19.03
2022-12-03T00:03:59.696Z,18.95
2022-12-03T00:07:01.995Z,19.27
2022-12-03T00:10:05.431Z,17.73
2022-12-03T00:13:07.560Z,17.33
2022-12-03T00:16:09.764Z,18.77
2022-12-03T00:19:12.935Z,18.05
2022-12-03T00:22:15.075Z,19.02
2022-12-03T00:25:17.797Z,20.02
2022-12-03T00:28:19.927Z,18.55
2022-12-03T00:31:23.571Z,18.23
2022-12-03T00:34:25.842Z,18.23
2022-12-03T00:37:28.097Z,20.08
2022-12-03T00:40:30.331Z,19.52
2022-12-03T00:43:33.108Z,18.02
2022-12-03T00:46:35.323Z,18.70
2022-12-03T00:49:37.519Z,19.85
2022-12-03T00:52:39.738Z,18.33
2022-12-03T00:55:41.955Z,18.85
2022-12-03T00:58:44.112Z,18.27
2022-12-03T01:01:46.240Z,20.17
2022-12-03T01:04:48.477Z,19.02
2022-12-03T01:07:50.762Z,19.17
2022-12-03T01:10:52.956Z,18.13
2022-12-03T01:13:55.073Z,18.73
2022-12-03T01:16:57.223Z,19.73
2022-12-03T01:19:59.399Z,18.90
2022-12-03T01:23:01.501Z,19.83
2022-12-03T01:26:03.734Z,19.30
2022-12-03T01:29:06.385Z,18.73
2022-12-03T01:32:19.647Z,18.83
2022-12-03T01:35:21.994Z,18.23
2022-12-03T01:38:24.118Z,20.63
2022-12-03T01:41:26.355Z,18.63
2022-12-03T01:44:33.935Z,20.42
2022-12-03T01:47:37.257Z,20.73
2022-12-03T01:50:39.379Z,19.92
2022-12-03T01:53:41.939Z,19.17
2022-12-03T01:56:45.020Z,18.63
2022-12-03T01:59:47.663Z,19.27
2022-12-03T02:02:52.942Z,19.17
2022-12-03T02:05:55.085Z,20.35
2022-12-03T02:08:59.738Z,18.63
2022-12-03T02:12:01.873Z,20.13
2022-12-03T02:15:06.072Z,18.85
2022-12-03T02:18:09.075Z,19.57
2022-12-03T02:21:14.034Z,21.45
2022-12-03T02:24:27.735Z,20.00
2022-12-03T02:27:29.954Z,19.40
2022-12-03T02:30:32.659Z,19.13
2022-12-03T02:33:35.930Z,18.00
2022-12-03T02:36:38.653Z,20.65
2022-12-03T02:39:44.475Z,22.13
2022-12-03T02:42:47.330Z,20.30
2022-12-03T02:45:52.802Z,20.75
2022-12-03T02:48:55.331Z,20.53
2022-12-03T02:51:57.465Z,20.10
2022-12-03T02:54:59.770Z,19.77
2022-12-03T02:58:03.794Z,19.35
2022-12-03T03:01:06.266Z,19.55
2022-12-03T03:04:08.989Z,19.90
2022-12-03T03:07:11.424Z,21.50
2022-12-03T03:10:15.702Z,21.08
2022-12-03T03:13:20.860Z,21.05
2022-12-03T03:16:23.008Z,19.77
2022-12-03T03:19:25.998Z,19.50
2022-12-03T03:22:36.866Z,18.67
2022-12-03T03:25:40.274Z,19.85
2022-12-03T03:28:46.028Z,19.00
2022-12-03T03:31:48.614Z,20.23
2022-12-03T03:34:50.961Z,19.37
2022-12-03T03:37:54.487Z,19.77
2022-12-03T03:40:57.991Z,18.90
2022-12-03T03:44:00.422Z,20.02
2022-12-03T03:47:02.799Z,20.05
2022-12-03T03:50:06.410Z,19.30
2022-12-03T03:53:08.602Z,19.98
2022-12-03T03:56:11.282Z,20.08
2022-12-03T03:59:13.866Z,19.02
2022-12-03T04:02:20.888Z,19.75
2022-12-03T04:05:24.264Z,20.00
2022-12-03T04:08:26.576Z,19.58
2022-12-03T04:11:47.378Z,19.15
2022-12-03T04:14:50.283Z,19.80
2022-12-03T04:18:12.029Z,18.77
2022-12-03T04:21:39.238Z,19.10
2022-12-03T04:24:41.390Z,18.58
2022-12-03T04:28:02.643Z,20.52
2022-12-03T04:31:24.901Z,18.00
2022-12-03T04:34:45.784Z,17.90
2022-12-03T04:37:47.938Z,18.20
2022-12-03T04:41:04.174Z,19.00
2022-12-03T04:44:25.195Z,18.42
2022-12-03T04:47:27.584Z,16.90
2022-12-03T04:50:29.689Z,16.65
2022-12-03T04:53:31.853Z,17.07
2022-12-03T04:56:34.003Z,16.90
2022-12-03T04:59:36.953Z,15.20
2022-12-03T05:02:39.202Z,18.60
2022-12-03T05:05:41.363Z,18.63
2022-12-03T05:08:43.547Z,16.40
2022-12-03T05:11:45.711Z,17.27
2022-12-03T05:14:48.198Z,17.55
2022-12-03T05:17:50.367Z,17.15
2022-12-03T05:20:53.664Z,17.10
2022-12-03T05:23:56.054Z,17.10
2022-12-03T05:26:58.230Z,17.02
2022-12-03T05:30:00.500Z,16.67
2022-12-03T05:33:02.745Z,15.73
2022-12-03T05:36:05.028Z,15.98
2022-12-03T05:39:07.144Z,17.73
2022-12-03T05:42:28.068Z,17.55
2022-12-03T05:45:35.125Z,18.33
2022-12-03T05:48:37.228Z,18.10
2022-12-03T05:51:39.306Z,18.60
2022-12-03T05:54:41.439Z,18.00
2022-12-03T05:57:43.658Z,18.58
2022-12-03T06:00:45.845Z,17.60
2022-12-03T06:03:48.246Z,18.20
2022-12-03T06:06:50.576Z,19.33
2022-12-03T06:09:52.701Z,18.00
2022-12-03T06:12:54.921Z,17.60
2022-12-03T06:15:57.069Z,18.13
2022-12-03T06:18:59.252Z,18.33
2022-12-03T06:22:01.465Z,17.00
2022-12-03T06:25:07.392Z,17.57
2022-12-03T06:28:09.721Z,19.80
2022-12-03T06:31:12.796Z,19.35
2022-12-03T06:34:14.884Z,18.23
2022-12-03T06:37:17.002Z,19.23
2022-12-03T06:40:19.368Z,18.00
2022-12-03T06:43:21.520Z,18.45
2022-12-03T06:46:24.025Z,18.13
2022-12-03T06:49:26.249Z,17.77
2022-12-03T06:52:28.375Z,17.98
2022-12-03T06:55:30.525Z,17.93
2022-12-03T06:58:32.673Z,19.17
2022-12-03T07:01:34.878Z,18.08
2022-12-03T07:04:38.359Z,17.70
2022-12-03T07:07:42.293Z,18.58
2022-12-03T07:10:44.629Z,17.30
2022-12-03T07:13:46.782Z,18.70
2022-12-03T07:16:49.217Z,18.58
2022-12-03T07:19:51.386Z,16.98
2022-12-03T07:22:53.522Z,18.85
2022-12-03T07:25:55.669Z,18.90
2022-12-03T07:28:57.885Z,16.95
2022-12-03T07:32:00.061Z,18.50
2022-12-03T07:35:07.249Z,17.35
2022-12-03T07:38:09.367Z,17.52
2022-12-03T07:41:11.562Z,17.90
2022-12-03T07:44:14.787Z,16.83
2022-12-03T07:47:17.578Z,17.95
2022-12-03T07:50:19.713Z,18.38
2022-12-03T07:53:22.279Z,17.83
2022-12-03T07:56:24.459Z,17.00
2022-12-03T07:59:26.709Z,18.55
2022-12-03T08:02:28.931Z,16.70
2022-12-03T08:05:31.215Z,18.02
2022-12-03T08:08:33.354Z,18.40
2022-12-03T08:11:35.480Z,16.67
2022-12-03T08:14:37.671Z,17.00
2022-12-03T08:17:40.646Z,18.52
2022-12-03T08:20:43.817Z,17.40
2022-12-03T08:23:46.032Z,17.08
2022-12-03T08:26:49.695Z,16.87
2022-12-03T08:29:54.207Z,17.38
2022-12-03T08:32:58.051Z,17.48
2022-12-03T08:36:01.351Z,17.73
2022-12-03T08:39:26.569Z,16.67
2022-12-03T08:42:42.389Z,16.40
2022-12-03T08:45:45.415Z,15.23
2022-12-03T08:48:49.396Z,16.42
2022-12-03T08:51:57.608Z,13.55
2022-12-03T08:55:00.800Z,15.50
2022-12-03T08:58:18.474Z,15.07
2022-12-03T09:01:33.405Z,15.27
2022-12-03T09:04:47.711Z,14.48
2022-12-03T09:07:49.999Z,14.35
2022-12-03T09:11:00.019Z,15.45
2022-12-03T09:14:02.164Z,14.57
2022-12-03T09:17:06.253Z,14.52
2022-12-03T09:20:08.934Z,15.85
2022-12-03T09:23:11.051Z,14.02
2022-12-03T09:26:13.159Z,15.88
2022-12-03T09:29:15.386Z,15.20
2022-12-03T09:32:18.796Z,15.05
2022-12-03T09:35:21.224Z,15.27
2022-12-03T09:38:23.390Z,14.80
2022-12-03T09:41:26.270Z,15.25
2022-12-03T09:44:33.404Z,15.63
2022-12-03T09:47:36.941Z,15.93
2022-12-03T09:50:40.774Z,15.43
2022-12-03T09:53:42.945Z,16.10
2022-12-03T09:56:45.094Z,15.65
2022-12-03T09:59:47.273Z,15.57
2022-12-03T10:02:50.847Z,14.52
2022-12-03T10:05:53.835Z,15.57
2022-12-03T10:08:56.271Z,14.80
2022-12-03T10:12:05.447Z,14.88
2022-12-03T10:15:12.261Z,17.80
2022-12-03T10:18:19.335Z,15.63
2022-12-03T10:21:26.269Z,15.95
2022-12-03T10:24:29.638Z,14.65
2022-12-03T10:27:31.824Z,14.77
2022-12-03T10:30:34.028Z,14.87
2022-12-03T10:33:38.725Z,15.07
2022-12-03T10:36:41.073Z,14.32
2022-12-03T10:40:10.700Z,14.45
2022-12-03T10:43:13.905Z,14.50
2022-12-03T10:46:25.353Z,15.10
2022-12-03T10:49:27.645Z,14.40
2022-12-03T10:52:30.385Z,14.18
2022-12-03T10:55:38.951Z,14.90
2022-12-03T10:58:41.738Z,14.48
2022-12-03T11:01:44.230Z,14.53
2022-12-03T11:04:46.550Z,14.73
2022-12-03T11:07:49.005Z,15.48
2022-12-03T11:11:06.560Z,14.10
2022-12-03T11:14:11.196Z,13.98
2022-12-03T11:17:13.550Z,13.10
2022-12-03T11:20:24.764Z,13.73
2022-12-03T11:23:45.013Z,13.55
2022-12-03T11:26:50.170Z,13.52
2022-12-03T11:29:59.853Z,13.88
2022-12-03T11:33:02.035Z,13.27
2022-12-03T11:36:04.130Z,13.23
2022-12-03T11:39:08.498Z,12.38
2022-12-03T11:42:25.680Z,12.30
2022-12-03T11:45:35.816Z,13.13
2022-12-03T11:48:45.335Z,13.13
2022-12-03T11:51:47.721Z,13.48
2022-12-03T11:54:53.136Z,12.50
2022-12-03T11:58:00.625Z,12.48
2022-12-03T12:01:04.854Z,12.52
2022-12-03T12:04:08.585Z,11.73
2022-12-03T12:07:10.918Z,12.18
2022-12-03T12:10:14.378Z,12.85
2022-12-03T12:13:34.078Z,11.77
2022-12-03T12:16:52.190Z,12.35
2022-12-03T12:20:22.879Z,11.83
2022-12-03T12:23:29.001Z,11.52
2022-12-03T12:26:31.469Z,11.48
2022-12-03T12:29:34.687Z,10.63
2022-12-03T12:32:45.267Z,11.70
2022-12-03T12:35:47.467Z,9.70
2022-12-03T12:38:49.606Z,9.52
2022-12-03T12:41:51.815Z,9.75
2022-12-03T12:44:58.920Z,10.32
2022-12-03T12:48:09.868Z,10.35
2022-12-03T12:51:18.829Z,9.70
2022-12-03T12:54:21.356Z,9.15
2022-12-03T12:57:24.222Z,9.38
2022-12-03T13:00:26.570Z,9.40
2022-12-03T13:03:33.609Z,8.63
2022-12-03T13:06:35.814Z,9.03
2022-12-03T13:09:38.675Z,9.43
2022-12-03T13:12:40.881Z,9.73
2022-12-03T13:16:01.723Z,9.55
2022-12-03T13:19:29.998Z,10.35
2022-12-03T13:22:32.137Z,9.73
2022-12-03T13:25:59.311Z,11.13
2022-12-03T13:28:59.885Z,10.60
2022-12-03T13:32:10.229Z,10.98
2022-12-03T13:35:31.870Z,11.05
2022-12-03T13:38:34.040Z,9.53
2022-12-03T13:41:54.995Z,9.65
2022-12-03T13:44:57.154Z,11.02
2022-12-03T13:48:01.035Z,10.38
2022-12-03T13:51:35.622Z,9.80
2022-12-03T13:54:39.307Z,9.97
2022-12-03T13:57:51.010Z,10.05
2022-12-03T14:00:53.218Z,10.02
2022-12-03T14:03:55.664Z,10.38
2022-12-03T14:06:57.808Z,10.43
2022-12-03T14:09:59.974Z,8.93
2022-12-03T14:13:02.149Z,9.75
2022-12-03T14:16:04.601Z,9.65
2022-12-03T14:19:06.902Z,9.07
2022-12-03T14:22:10.037Z,9.73
2022-12-03T14:25:12.169Z,9.97
2022-12-03T14:28:14.277Z,10.10
2022-12-03T14:31:16.479Z,10.00
2022-12-03T14:34:18.692Z,10.07
2022-12-03T14:37:20.831Z,10.85
2022-12-03T14:40:23.637Z,10.97
2022-12-03T14:43:26.050Z,10.05
2022-12-03T14:46:28.254Z,10.77
2022-12-03T14:49:30.434Z,10.90
2022-12-03T14:52:32.842Z,10.32
2022-12-03T14:55:35.210Z,10.07
2022-12-03T14:58:37.399Z,10.10
2022-12-03T15:01:39.608Z,10.90
2022-12-03T15:04:42.026Z,10.40
2022-12-03T15:07:44.215Z,10.65
2022-12-03T15:10:46.652Z,10.20
2022-12-03T15:13:48.945Z,10.52
2022-12-03T15:16:51.228Z,11.45
2022-12-03T15:19:53.629Z,10.30
2022-12-03T15:22:55.859Z,10.13
2022-12-03T15:25:58.333Z,10.40
2022-12-03T15:29:00.597Z,10.85
2022-12-03T15:32:03.387Z,11.27
2022-12-03T15:35:05.933Z,10.48
2022-12-03T15:38:08.551Z,11.60
2022-12-03T15:41:23.475Z,19.77
2022-12-03T15:44:25.630Z,14.02
2022-12-03T15:47:28.516Z,15.75
2022-12-03T15:50:34.599Z,13.10
2022-12-03T15:53:42.077Z,13.10
2022-12-03T15:56:45.268Z,12.93
2022-12-03T15:59:48.254Z,11.98
2022-12-03T16:02:53.157Z,13.23
2022-12-03T16:05:56.967Z,13.02
2022-12-03T16:08:59.891Z,13.07
2022-12-03T16:12:02.135Z,13.50
2022-12-03T16:15:04.735Z,13.95
2022-12-03T16:18:06.875Z,14.20
2022-12-03T16:21:09.125Z,28.20
2022-12-03T16:24:11.249Z,27.88
2022-12-03T16:27:13.369Z,19.10
2022-12-03T16:30:15.772Z,46.13
2022-12-03T16:33:22.530Z,59.15
2022-12-03T16:36:29.375Z,32.03
2022-12-03T16:39:31.881Z,18.55
2022-12-03T16:42:34.091Z,28.70
2022-12-03T16:45:43.144Z,64.65
2022-12-03T16:48:46.116Z,21.02
2022-12-03T16:51:48.310Z,23.08
2022-12-03T16:54:50.518Z,21.13
2022-12-03T16:57:52.648Z,20.67
2022-12-03T17:00:55.305Z,24.05
2022-12-03T17:03:58.267Z,23.67
2022-12-03T17:07:00.550Z,22.50
2022-12-03T17:10:02.708Z,22.17
2022-12-03T17:13:10.171Z,21.07
2022-12-03T17:16:12.998Z,23.45
2022-12-03T17:19:15.400Z,23.63
2022-12-03T17:22:17.615Z,23.92
2022-12-03T17:25:19.737Z,22.52
2022-12-03T17:28:21.879Z,25.53
2022-12-03T17:31:24.037Z,23.88
2022-12-03T17:34:27.014Z,24.35
2022-12-03T17:37:29.294Z,23.52
2022-12-03T17:40:31.464Z,25.13
2022-12-03T17:43:33.916Z,25.60
2022-12-03T17:46:36.106Z,30.33
2022-12-03T17:49:38.268Z,26.83
2022-12-03T17:52:40.469Z,24.88
2022-12-03T17:55:44.974Z,26.45
2022-12-03T17:58:47.921Z,27.17
2022-12-03T18:01:50.465Z,32.03
2022-12-03T18:04:53.076Z,32.10
2022-12-03T18:07:55.351Z,28.45
2022-12-03T18:10:57.841Z,27.95
2022-12-03T18:14:02.134Z,24.90
2022-12-03T18:17:05.739Z,26.48
2022-12-03T18:20:09.027Z,25.55
2022-12-03T18:23:12.946Z,27.60
2022-12-03T18:26:16.238Z,27.40
2022-12-03T18:29:19.852Z,24.53
2022-12-03T18:32:29.315Z,24.67
2022-12-03T18:35:32.998Z,25.80
2022-12-03T18:38:36.297Z,27.05
2022-12-03T18:41:39.591Z,27.80
2022-12-03T18:44:46.420Z,28.17
2022-12-03T18:47:52.531Z,27.60
2022-12-03T18:50:57.308Z,27.92
2022-12-03T18:54:00.917Z,28.73
2022-12-03T18:57:04.523Z,32.83
2022-12-03T19:00:13.497Z,29.97
2022-12-03T19:03:17.221Z,28.45
2022-12-03T19:06:21.019Z,34.45
2022-12-03T19:09:23.294Z,29.25
2022-12-03T19:12:25.893Z,29.88
2022-12-03T19:15:28.413Z,35.37
2022-12-03T19:18:30.605Z,34.28
2022-12-03T19:21:33.955Z,31.90
2022-12-03T19:24:38.337Z,33.50
2022-12-03T19:27:41.318Z,34.42
2022-12-03T19:30:44.274Z,33.57
2022-12-03T19:33:47.627Z,31.85
2022-12-03T19:36:50.193Z,31.48
2022-12-03T19:39:54.224Z,32.28
2022-12-03T19:42:57.214Z,35.10
2022-12-03T19:46:07.100Z,34.10
2022-12-03T19:49:10.659Z,31.08
2022-12-03T19:52:13.281Z,33.70
2022-12-03T19:55:19.869Z,35.45
2022-12-03T19:58:22.622Z,33.75
2022-12-03T20:01:27.427Z,33.13
2022-12-03T20:04:30.332Z,32.33
2022-12-03T20:07:32.978Z,32.70
2022-12-03T20:10:35.911Z,30.70
2022-12-03T20:13:38.921Z,32.95
2022-12-03T20:16:41.841Z,33.70
2022-12-03T20:19:44.576Z,34.45
2022-12-03T20:22:47.115Z,35.47
2022-12-03T20:25:49.715Z,35.08
2022-12-03T20:28:54.608Z,35.63
2022-12-03T20:31:57.309Z,36.20
2022-12-03T20:35:07.756Z,37.67
2022-12-03T20:38:10.236Z,38.55
2022-12-03T20:41:19.233Z,39.47
2022-12-03T20:44:27.016Z,37.80
2022-12-03T20:47:29.697Z,42.23
2022-12-03T20:50:32.221Z,33.72
2022-12-03T20:53:34.573Z,34.83
2022-12-03T20:56:39.880Z,37.65
2022-12-03T20:59:42.391Z,35.97
2022-12-03T21:02:45.717Z,34.00
2022-12-03T21:05:48.344Z,34.28
2022-12-03T21:09:05.859Z,36.10
2022-12-03T21:12:08.307Z,34.60
2022-12-03T21:15:10.993Z,35.50
2022-12-03T21:18:15.753Z,34.17
2022-12-03T21:21:18.905Z,38.38
2022-12-03T21:24:24.550Z,46.80
2022-12-03T21:27:26.925Z,46.22
2022-12-03T21:30:29.502Z,36.58
2022-12-03T21:33:32.472Z,42.13
2022-12-03T21:36:34.822Z,39.78
2022-12-03T21:39:37.713Z,38.33
2022-12-03T21:42:40.028Z,38.25
2022-12-03T21:45:42.795Z,38.03
2022-12-03T21:48:45.851Z,46.70
2022-12-03T21:51:48.750Z,41.22
2022-12-03T21:54:54.106Z,40.28
2022-12-03T21:57:56.259Z,41.78
2022-12-03T22:00:58.445Z,38.90
2022-12-03T22:04:01.096Z,35.80
2022-12-03T22:07:05.216Z,36.63
2022-12-03T22:10:09.595Z,35.42
2022-12-03T22:13:11.795Z,37.92
2022-12-03T22:16:16.406Z,33.78
2022-12-03T22:19:23.289Z,33.10
2022-12-03T22:22:25.766Z,34.47
2022-12-03T22:25:27.880Z,35.88
2022-12-03T22:28:30.090Z,34.92
2022-12-03T22:31:32.308Z,43.00
2022-12-03T22:34:35.055Z,45.17
2022-12-03T22:37:37.534Z,42.50
2022-12-03T22:40:39.714Z,44.65
2022-12-03T22:43:42.242Z,41.63
2022-12-03T22:46:44.382Z,40.60
2022-12-03T22:49:46.563Z,41.17
2022-12-03T22:52:48.656Z,44.47
2022-12-03T22:55:55.438Z,48.08
2022-12-03T22:58:57.723Z,46.25
2022-12-03T23:01:59.929Z,47.20
2022-12-03T23:05:02.124Z,44.30
2022-12-03T23:08:17.144Z,41.08
2022-12-03T23:11:20.053Z,39.78
2022-12-03T23:14:22.203Z,40.53
2022-12-03T23:17:24.312Z,40.70
2022-12-03T23:20:27.398Z,40.10
2022-12-03T23:23:29.626Z,49.70
2022-12-03T23:26:35.618Z,49.80
2022-12-03T23:29:37.738Z,41.50
2022-12-03T23:32:41.979Z,37.92
2022-12-03T23:35:44.069Z,34.10
2022-12-03T23:38:46.422Z,34.88
2022-12-03T23:41:51.389Z,35.65
2022-12-03T23:44:53.740Z,37.03
2022-12-03T23:47:58.376Z,35.30
2022-12-03T23:51:08.406Z,33.00
2022-12-03T23:54:12.176Z,34.13
2022-12-03T23:57:14.352Z,31.98
